createdAt,value
2023-03-21T00:01:54.860Z,13.60
2023-03-21T00:04:22.424Z,14.02
2023-03-21T00:06:48.846Z,14.38
2023-03-21T00:09:15.456Z,14.40
2023-03-21T00:11:42.004Z,14.15
2023-03-21T00:14:08.943Z,14.10
2023-03-21T00:16:37.143Z,13.80
2023-03-21T00:19:06.424Z,14.45
2023-03-21T00:21:46.611Z,14.85
2023-03-21T00:24:19.720Z,14.40
2023-03-21T00:26:46.209Z,14.90
2023-03-21T00:29:12.534Z,13.60
2023-03-21T00:31:38.869Z,13.25
2023-03-21T00:34:05.206Z,12.98
2023-03-21T00:36:32.153Z,11.68
2023-03-21T00:39:00.787Z,12.88
2023-03-21T00:41:41.367Z,12.63
2023-03-21T00:44:08.844Z,12.10
2023-03-21T00:46:45.161Z,12.90
2023-03-21T00:49:15.544Z,11.30
2023-03-21T00:51:43.653Z,12.20
2023-03-21T00:54:11.671Z,11.40
2023-03-21T00:56:38.151Z,12.35
2023-03-21T00:59:04.473Z,12.75
2023-03-21T01:01:34.442Z,13.38
2023-03-21T01:04:05.673Z,12.35
2023-03-21T01:06:33.013Z,12.25
2023-03-21T01:08:59.379Z,13.13
2023-03-21T01:11:27.387Z,12.15
2023-03-21T01:14:04.057Z,12.23
2023-03-21T01:16:34.070Z,12.43
2023-03-21T01:19:01.197Z,12.75
2023-03-21T01:21:28.369Z,12.10
2023-03-21T01:23:54.751Z,13.38
2023-03-21T01:26:21.349Z,14.93
2023-03-21T01:28:47.673Z,13.32
2023-03-21T01:31:14.896Z,14.25
2023-03-21T01:33:41.332Z,14.52
2023-03-21T01:36:13.225Z,15.35
2023-03-21T01:38:40.837Z,14.68
2023-03-21T01:41:18.638Z,16.63
2023-03-21T01:43:45.883Z,15.93
2023-03-21T01:46:21.356Z,15.63
2023-03-21T01:51:14.010Z,16.85
2023-03-21T01:53:41.570Z,16.42
2023-03-21T01:56:16.819Z,17.27
2023-03-21T01:58:44.073Z,15.70
2023-03-21T02:01:10.745Z,15.88
2023-03-21T02:03:49.913Z,17.63
2023-03-21T02:06:22.500Z,17.25
2023-03-21T02:08:48.836Z,18.65
2023-03-21T02:11:16.208Z,18.50
2023-03-21T02:13:42.656Z,19.25
2023-03-21T02:16:29.255Z,19.35
2023-03-21T02:19:17.657Z,19.65
2023-03-21T02:22:05.516Z,19.75
2023-03-21T02:24:59.669Z,19.05
2023-03-21T02:27:32.054Z,19.48
2023-03-21T02:30:26.489Z,19.55
2023-03-21T02:33:14.679Z,18.65
2023-03-21T02:35:53.631Z,19.67
2023-03-21T02:38:28.082Z,18.63
2023-03-21T02:41:10.047Z,18.65
2023-03-21T02:43:44.766Z,19.88
2023-03-21T02:46:22.615Z,18.90
2023-03-21T02:48:52.257Z,21.08
2023-03-21T02:51:21.468Z,20.10
2023-03-21T02:54:10.225Z,19.85
2023-03-21T02:56:40.433Z,21.17
2023-03-21T02:59:07.435Z,19.38
2023-03-21T03:01:34.097Z,19.15
2023-03-21T03:04:00.620Z,20.45
2023-03-21T03:06:46.136Z,18.83
2023-03-21T03:09:24.613Z,22.05
2023-03-21T03:11:54.619Z,18.98
2023-03-21T03:14:53.149Z,20.52
2023-03-21T03:17:29.200Z,18.25
2023-03-21T03:20:15.636Z,18.65
2023-03-21T03:22:48.684Z,17.98
2023-03-21T03:25:24.945Z,17.13
2023-03-21T03:27:54.551Z,16.50
2023-03-21T03:30:23.690Z,16.10
2023-03-21T03:32:53.418Z,14.65
2023-03-21T03:35:21.339Z,14.93
2023-03-21T03:37:49.279Z,15.27
2023-03-21T03:40:18.940Z,14.60
2023-03-21T03:42:51.477Z,14.18
2023-03-21T03:45:18.239Z,14.70
2023-03-21T03:47:57.072Z,13.27
2023-03-21T03:50:28.168Z,12.10
2023-03-21T03:52:59.822Z,12.35
2023-03-21T03:55:28.212Z,12.70
2023-03-21T03:57:55.227Z,12.93
2023-03-21T04:00:21.584Z,13.15
2023-03-21T04:02:47.958Z,12.55
2023-03-21T04:05:14.472Z,12.73
2023-03-21T04:07:41.315Z,13.65
2023-03-21T04:10:08.126Z,13.23
2023-03-21T04:12:34.408Z,13.75
2023-03-21T04:15:13.704Z,14.65
2023-03-21T04:17:40.099Z,15.18
2023-03-21T04:20:12.180Z,15.65
2023-03-21T04:22:43.326Z,14.55
2023-03-21T04:25:09.867Z,16.88
2023-03-21T04:27:36.402Z,16.63
2023-03-21T04:30:03.434Z,17.45
2023-03-21T04:32:33.756Z,19.35
2023-03-21T04:35:00.924Z,17.75
2023-03-21T04:37:27.951Z,19.45
2023-03-21T04:39:54.296Z,17.50
2023-03-21T04:42:20.597Z,19.92
2023-03-21T04:44:47.502Z,20.25
2023-03-21T04:47:15.947Z,20.63
2023-03-21T04:49:43.269Z,21.63
2023-03-21T04:52:09.556Z,21.92
2023-03-21T04:54:35.879Z,22.17
2023-03-21T04:57:02.321Z,21.95
2023-03-21T04:59:28.675Z,21.08
2023-03-21T05:01:56.806Z,22.23
2023-03-21T05:04:23.274Z,21.52
2023-03-21T05:06:49.655Z,21.70
2023-03-21T05:09:15.935Z,20.35
2023-03-21T05:11:42.277Z,16.92
2023-03-21T05:14:10.151Z,16.40
2023-03-21T05:16:38.653Z,17.30
2023-03-21T05:19:05.047Z,16.70
2023-03-21T05:21:41.307Z,15.43
2023-03-21T05:24:12.108Z,17.00
2023-03-21T05:26:39.597Z,15.13
2023-03-21T05:29:06.009Z,15.98
2023-03-21T05:31:32.684Z,15.20
2023-03-21T05:33:59.298Z,14.65
2023-03-21T05:36:25.732Z,15.95
2023-03-21T05:38:52.129Z,15.70
2023-03-21T05:41:19.349Z,16.70
2023-03-21T05:43:45.741Z,14.93
2023-03-21T05:46:12.324Z,16.95
2023-03-21T05:48:39.188Z,15.68
2023-03-21T05:51:05.746Z,16.05
2023-03-21T05:53:32.266Z,15.07
2023-03-21T05:55:58.598Z,15.80
2023-03-21T05:58:24.931Z,13.95
2023-03-21T06:00:51.295Z,15.80
2023-03-21T06:03:17.657Z,14.95
2023-03-21T06:05:43.887Z,15.00
2023-03-21T06:08:10.182Z,14.35
2023-03-21T06:10:36.583Z,14.13
2023-03-21T06:13:03.325Z,15.45
2023-03-21T06:15:29.673Z,15.18
2023-03-21T06:17:56.092Z,14.00
2023-03-21T06:20:22.424Z,15.13
2023-03-21T06:22:48.677Z,13.48
2023-03-21T06:25:15.407Z,14.32
2023-03-21T06:27:41.752Z,13.80
2023-03-21T06:30:08.571Z,13.90
2023-03-21T06:32:34.885Z,13.63
2023-03-21T06:35:01.258Z,12.73
2023-03-21T06:37:27.590Z,13.35
2023-03-21T06:39:55.482Z,12.82
2023-03-21T06:42:22.137Z,14.02
2023-03-21T06:44:48.444Z,12.68
2023-03-21T06:47:14.794Z,13.77
2023-03-21T06:49:42.976Z,13.02
2023-03-21T06:52:09.785Z,11.70
2023-03-21T06:54:36.444Z,12.38
2023-03-21T06:57:03.247Z,12.27
2023-03-21T06:59:29.778Z,12.35
2023-03-21T07:01:56.285Z,12.07
2023-03-21T07:04:22.579Z,11.90
2023-03-21T07:06:49.316Z,11.65
2023-03-21T07:09:17.782Z,11.15
2023-03-21T07:11:44.098Z,11.10
2023-03-21T07:14:10.374Z,12.45
2023-03-21T07:16:36.706Z,13.07
2023-03-21T07:19:03.338Z,11.95
2023-03-21T07:21:29.911Z,11.43
2023-03-21T07:23:56.374Z,11.82
2023-03-21T07:26:22.859Z,11.25
2023-03-21T07:28:49.201Z,11.07
2023-03-21T07:31:16.558Z,11.88
2023-03-21T07:33:43.165Z,11.60
2023-03-21T07:36:11.567Z,10.48
2023-03-21T07:38:37.965Z,11.40
2023-03-21T07:41:04.341Z,10.10
2023-03-21T07:43:31.083Z,10.73
2023-03-21T07:45:57.879Z,11.45
2023-03-21T07:48:24.569Z,9.85
2023-03-21T07:50:51.012Z,9.25
2023-03-21T07:53:17.385Z,9.63
2023-03-21T07:55:43.695Z,10.30
2023-03-21T07:58:10.096Z,9.52
2023-03-21T08:00:36.482Z,9.45
2023-03-21T08:03:03.374Z,10.80
2023-03-21T08:05:33.348Z,9.95
2023-03-21T08:08:00.188Z,9.90
2023-03-21T08:10:26.764Z,10.57
2023-03-21T08:12:53.261Z,9.18
2023-03-21T08:15:19.931Z,10.40
2023-03-21T08:17:46.418Z,10.30
2023-03-21T08:20:14.433Z,11.95
2023-03-21T08:22:41.527Z,9.75
2023-03-21T08:25:08.309Z,10.40
2023-03-21T08:27:35.391Z,11.02
2023-03-21T08:30:02.252Z,10.93
2023-03-21T08:32:30.269Z,10.18
2023-03-21T08:35:00.748Z,9.40
2023-03-21T08:37:27.434Z,10.80
2023-03-21T08:39:53.998Z,10.05
2023-03-21T08:42:21.423Z,9.55
2023-03-21T08:44:47.861Z,8.98
2023-03-21T08:47:14.310Z,10.10
2023-03-21T08:49:41.563Z,9.10
2023-03-21T08:52:08.024Z,9.43
2023-03-21T08:54:34.398Z,10.00
2023-03-21T08:57:00.971Z,9.38
2023-03-21T08:59:27.351Z,8.82
2023-03-21T09:01:53.763Z,9.60
2023-03-21T09:04:20.568Z,9.20
2023-03-21T09:06:48.720Z,9.40
2023-03-21T09:09:15.751Z,8.82
2023-03-21T09:11:42.521Z,8.25
2023-03-21T09:14:09.150Z,7.20
2023-03-21T09:16:35.455Z,7.10
2023-03-21T09:19:04.413Z,8.43
2023-03-21T09:21:31.402Z,7.68
2023-03-21T09:23:59.895Z,7.05
2023-03-21T09:26:27.734Z,7.43
2023-03-21T09:28:54.856Z,7.28
2023-03-21T09:31:22.751Z,7.30
2023-03-21T09:33:49.900Z,6.78
2023-03-21T09:36:18.946Z,7.20
2023-03-21T09:38:46.675Z,7.43
2023-03-21T09:41:33.667Z,7.85
2023-03-21T09:44:03.628Z,8.00
2023-03-21T09:46:35.794Z,7.30
2023-03-21T09:49:07.827Z,6.95
2023-03-21T09:51:40.712Z,6.78
2023-03-21T09:54:12.050Z,6.82
2023-03-21T09:56:41.026Z,7.68
2023-03-21T09:59:09.086Z,8.05
2023-03-21T10:01:41.964Z,6.13
2023-03-21T10:04:11.331Z,8.13
2023-03-21T10:06:40.263Z,8.18
2023-03-21T10:09:09.136Z,7.95
2023-03-21T10:11:41.640Z,7.50
2023-03-21T10:14:13.088Z,7.43
2023-03-21T10:16:44.734Z,7.38
2023-03-21T10:19:16.540Z,7.70
2023-03-21T10:22:03.600Z,7.35
2023-03-21T10:24:32.521Z,7.20
2023-03-21T10:26:59.284Z,7.10
2023-03-21T10:29:32.383Z,8.05
2023-03-21T10:31:59.077Z,8.20
2023-03-21T10:34:31.152Z,9.15
2023-03-21T10:36:57.593Z,6.80
2023-03-21T10:39:27.215Z,7.70
2023-03-21T10:41:53.823Z,6.60
2023-03-21T10:44:20.803Z,6.45
2023-03-21T10:46:54.770Z,5.95
2023-03-21T10:49:25.496Z,7.15
2023-03-21T10:51:53.429Z,7.57
2023-03-21T10:54:22.067Z,6.38
2023-03-21T10:56:57.034Z,6.72
2023-03-21T10:59:23.885Z,8.15
2023-03-21T11:01:51.648Z,7.00
2023-03-21T11:04:22.641Z,6.43
2023-03-21T11:07:00.693Z,7.45
2023-03-21T11:09:42.705Z,6.22
2023-03-21T11:12:32.567Z,6.18
2023-03-21T11:15:13.806Z,6.93
2023-03-21T11:17:40.345Z,6.28
2023-03-21T11:20:09.339Z,6.47
2023-03-21T11:22:39.429Z,6.45
2023-03-21T11:25:08.100Z,7.72
2023-03-21T11:27:34.579Z,6.07
2023-03-21T11:30:02.367Z,6.72
2023-03-21T11:32:36.181Z,6.53
2023-03-21T11:35:23.440Z,6.53
2023-03-21T11:37:54.117Z,6.57
2023-03-21T11:40:26.540Z,6.57
2023-03-21T11:42:57.273Z,6.43
2023-03-21T11:45:46.283Z,6.05
2023-03-21T11:48:13.563Z,6.28
2023-03-21T11:50:41.589Z,7.55
2023-03-21T11:53:07.989Z,6.28
2023-03-21T11:55:37.539Z,6.70
2023-03-21T11:58:14.158Z,5.90
2023-03-21T12:00:48.279Z,6.65
2023-03-21T12:03:21.931Z,6.07
2023-03-21T12:05:53.548Z,6.82
2023-03-21T12:08:22.649Z,6.82
2023-03-21T12:10:57.206Z,6.28
2023-03-21T12:13:33.672Z,5.90
2023-03-21T12:16:00.329Z,6.97
2023-03-21T12:18:35.392Z,6.30
2023-03-21T12:21:07.157Z,6.53
2023-03-21T12:23:47.460Z,6.80
2023-03-21T12:26:23.326Z,5.88
2023-03-21T12:28:52.497Z,6.05
2023-03-21T12:31:25.137Z,6.47
2023-03-21T12:33:51.461Z,6.30
2023-03-21T12:36:37.025Z,6.45
2023-03-21T12:39:12.610Z,6.07
2023-03-21T12:41:49.745Z,6.03
2023-03-21T12:44:17.204Z,6.43
2023-03-21T12:46:48.973Z,7.63
2023-03-21T12:49:18.145Z,6.97
2023-03-21T12:51:47.552Z,6.28
2023-03-21T12:54:13.839Z,7.07
2023-03-21T12:56:56.146Z,7.53
2023-03-21T12:59:25.199Z,8.15
2023-03-21T13:01:53.337Z,7.53
2023-03-21T13:04:31.874Z,8.52
2023-03-21T13:07:00.616Z,8.65
2023-03-21T13:09:40.772Z,7.68
2023-03-21T13:12:39.400Z,8.57
2023-03-21T13:15:15.330Z,7.28
2023-03-21T13:17:59.180Z,7.95
2023-03-21T13:20:29.115Z,6.85
2023-03-21T13:22:55.563Z,6.60
2023-03-21T13:25:22.871Z,6.15
2023-03-21T13:27:53.372Z,5.82
2023-03-21T13:30:26.044Z,5.32
2023-03-21T13:33:03.091Z,5.25
2023-03-21T13:35:38.259Z,4.90
2023-03-21T13:40:38.800Z,6.30
2023-03-21T13:43:07.227Z,6.30
2023-03-21T13:45:44.451Z,5.85
2023-03-21T13:48:25.957Z,7.40
2023-03-21T13:50:54.655Z,6.72
2023-03-21T13:53:22.526Z,6.72
2023-03-21T13:55:58.228Z,6.47
2023-03-21T13:58:31.693Z,5.90
2023-03-21T14:01:13.074Z,6.78
2023-03-21T14:03:40.019Z,6.90
2023-03-21T14:06:06.804Z,6.03
2023-03-21T14:08:37.677Z,6.55
2023-03-21T14:11:06.050Z,7.25
2023-03-21T14:13:38.109Z,6.80
2023-03-21T14:16:15.472Z,7.05
2023-03-21T14:18:53.592Z,6.57
2023-03-21T14:21:25.299Z,6.97
2023-03-21T14:23:59.284Z,6.90
2023-03-21T14:26:27.265Z,7.10
2023-03-21T14:28:53.671Z,7.28
2023-03-21T14:31:21.177Z,7.00
2023-03-21T14:33:53.274Z,7.30
2023-03-21T14:36:21.322Z,7.35
2023-03-21T14:39:15.130Z,8.15
2023-03-21T14:41:46.176Z,8.13
2023-03-21T14:44:15.748Z,7.18
2023-03-21T14:46:42.287Z,8.13
2023-03-21T14:49:12.945Z,7.18
2023-03-21T14:51:41.467Z,7.30
2023-03-21T14:54:11.400Z,6.90
2023-03-21T14:56:38.690Z,8.57
2023-03-21T14:59:05.030Z,7.82
2023-03-21T15:01:34.609Z,8.18
2023-03-21T15:04:03.902Z,7.40
2023-03-21T15:06:30.509Z,7.00
2023-03-21T15:09:01.049Z,7.15
2023-03-21T15:11:49.245Z,7.85
2023-03-21T15:14:16.809Z,7.90
2023-03-21T15:16:43.244Z,7.68
2023-03-21T15:19:14.314Z,7.70
2023-03-21T15:21:44.230Z,7.40
2023-03-21T15:24:16.947Z,7.20
2023-03-21T15:26:49.764Z,7.97
2023-03-21T15:29:17.152Z,7.43
2023-03-21T15:31:46.498Z,7.60
2023-03-21T15:34:20.797Z,7.50
2023-03-21T15:36:48.345Z,6.78
2023-03-21T15:39:16.148Z,6.95
2023-03-21T15:41:55.392Z,7.68
2023-03-21T15:44:22.179Z,7.63
2023-03-21T15:46:49.558Z,7.55
2023-03-21T15:49:16.157Z,8.25
2023-03-21T15:52:02.843Z,8.48
2023-03-21T15:54:32.845Z,7.75
2023-03-21T15:57:03.645Z,7.93
2023-03-21T15:59:34.561Z,9.25
2023-03-21T16:02:01.705Z,8.27
2023-03-21T16:04:28.357Z,8.05
2023-03-21T16:07:02.937Z,7.90
2023-03-21T16:09:38.997Z,8.40
2023-03-21T16:12:09.380Z,8.80
2023-03-21T16:14:35.921Z,8.13
2023-03-21T16:17:13.217Z,9.35
2023-03-21T16:19:40.034Z,8.93
2023-03-21T16:22:09.367Z,9.65
2023-03-21T16:24:35.771Z,9.15
2023-03-21T16:27:02.406Z,9.95
2023-03-21T16:29:29.191Z,9.50
2023-03-21T16:31:55.546Z,9.77
2023-03-21T16:34:21.964Z,10.10
2023-03-21T16:36:48.292Z,9.38
2023-03-21T16:39:19.425Z,9.05
2023-03-21T16:41:46.408Z,8.70
2023-03-21T16:44:12.859Z,9.27
2023-03-21T16:46:39.290Z,8.18
2023-03-21T16:49:10.093Z,9.07
2023-03-21T16:51:36.434Z,9.13
2023-03-21T16:54:03.111Z,7.55
2023-03-21T16:56:30.822Z,8.70
2023-03-21T16:58:57.752Z,7.53
2023-03-21T17:01:26.506Z,6.97
2023-03-21T17:03:53.641Z,7.63
2023-03-21T17:06:21.215Z,7.45
2023-03-21T17:08:47.959Z,6.95
2023-03-21T17:11:20.215Z,6.55
2023-03-21T17:13:47.607Z,6.03
2023-03-21T17:16:14.985Z,5.47
2023-03-21T17:18:41.395Z,5.53
2023-03-21T17:21:27.301Z,5.20
2023-03-21T17:23:53.894Z,5.05
2023-03-21T17:26:24.686Z,5.00
2023-03-21T17:28:53.096Z,5.03
2023-03-21T17:31:22.082Z,5.57
2023-03-21T17:33:48.768Z,5.35
2023-03-21T17:36:16.412Z,5.55
2023-03-21T17:38:42.720Z,5.82
2023-03-21T17:41:10.630Z,6.00
2023-03-21T17:43:36.905Z,6.07
2023-03-21T17:46:03.380Z,6.28
2023-03-21T17:48:29.739Z,6.13
2023-03-21T17:50:56.684Z,6.95
2023-03-21T17:53:23.124Z,7.22
2023-03-21T17:55:49.458Z,7.07
2023-03-21T17:58:17.666Z,6.40
2023-03-21T18:00:46.337Z,7.45
2023-03-21T18:03:13.495Z,7.45
2023-03-21T18:05:40.147Z,7.50
2023-03-21T18:08:12.111Z,6.40
2023-03-21T18:10:40.174Z,6.78
2023-03-21T18:13:06.720Z,6.18
2023-03-21T18:15:33.103Z,7.38
2023-03-21T18:17:59.545Z,7.13
2023-03-21T18:20:50.530Z,5.78
2023-03-21T18:23:16.071Z,6.32
2023-03-21T18:25:42.475Z,6.45
2023-03-21T18:28:11.972Z,6.75
2023-03-21T18:30:56.928Z,5.68
2023-03-21T18:33:25.246Z,5.43
2023-03-21T18:35:58.775Z,6.38
2023-03-21T18:38:25.966Z,6.15
2023-03-21T18:40:52.338Z,5.80
2023-03-21T18:46:05.787Z,5.68
2023-03-21T18:48:34.130Z,5.95
2023-03-21T18:51:00.930Z,6.10
2023-03-21T18:53:27.739Z,6.00
2023-03-21T18:55:54.323Z,6.47
2023-03-21T18:58:21.312Z,6.60
2023-03-21T19:00:49.138Z,6.95
2023-03-21T19:03:26.967Z,6.30
2023-03-21T19:06:00.739Z,7.53
2023-03-21T19:08:27.171Z,6.88
2023-03-21T19:10:53.758Z,7.93
2023-03-21T19:13:20.085Z,7.05
2023-03-21T19:15:49.395Z,7.75
2023-03-21T19:18:37.903Z,7.40
2023-03-21T19:21:03.452Z,7.18
2023-03-21T19:23:40.940Z,7.65
2023-03-21T19:26:16.725Z,8.05
2023-03-21T19:28:43.012Z,8.05
2023-03-21T19:31:09.428Z,7.70
2023-03-21T19:33:36.085Z,7.80
2023-03-21T19:36:15.276Z,7.82
2023-03-21T19:38:44.135Z,8.02
2023-03-21T19:41:10.658Z,8.52
2023-03-21T19:43:37.140Z,8.55
2023-03-21T19:46:03.697Z,8.70
2023-03-21T19:48:30.672Z,8.52
2023-03-21T19:53:43.316Z,8.98
2023-03-21T19:56:21.124Z,9.88
2023-03-21T19:58:49.293Z,10.23
2023-03-21T20:01:15.680Z,9.88
2023-03-21T20:03:44.131Z,9.65
2023-03-21T20:06:11.490Z,9.52
2023-03-21T20:09:05.354Z,10.63
2023-03-21T20:11:24.251Z,9.57
2023-03-21T20:13:50.619Z,9.60
2023-03-21T20:16:20.552Z,8.73
2023-03-21T20:18:47.111Z,8.77
2023-03-21T20:21:18.002Z,8.90
2023-03-21T20:23:49.116Z,9.02
2023-03-21T20:26:16.340Z,9.02
2023-03-21T20:28:56.212Z,9.65
2023-03-21T20:31:29.364Z,8.60
2023-03-21T20:33:55.636Z,9.05
2023-03-21T20:36:40.440Z,9.73
2023-03-21T20:39:07.532Z,9.32
2023-03-21T20:41:33.871Z,10.15
2023-03-21T20:46:49.370Z,10.02
2023-03-21T20:49:15.893Z,10.93
2023-03-21T20:54:29.500Z,10.50
2023-03-21T20:56:56.642Z,9.52
2023-03-21T20:59:27.037Z,9.90
2023-03-21T21:01:55.078Z,8.00
2023-03-21T21:04:22.429Z,8.32
2023-03-21T21:06:49.387Z,7.60
2023-03-21T21:09:16.458Z,6.70
2023-03-21T21:12:06.238Z,7.22
2023-03-21T21:14:29.527Z,6.47
2023-03-21T21:16:55.864Z,6.20
2023-03-21T21:19:22.193Z,6.30
2023-03-21T21:21:48.564Z,6.30
2023-03-21T21:24:14.987Z,6.65
2023-03-21T21:26:46.141Z,6.05
2023-03-21T21:29:16.878Z,5.80
2023-03-21T21:31:44.538Z,5.50
2023-03-21T21:34:10.980Z,4.93
2023-03-21T21:36:37.287Z,5.95
2023-03-21T21:39:04.467Z,6.15
2023-03-21T21:41:30.811Z,6.40
2023-03-21T21:43:57.089Z,5.60
2023-03-21T21:46:23.548Z,6.10
2023-03-21T21:48:49.877Z,5.75
2023-03-21T21:51:25.939Z,6.40
2023-03-21T21:53:52.882Z,7.13
2023-03-21T21:56:22.582Z,6.93
2023-03-21T21:58:48.949Z,6.68
2023-03-21T22:01:15.331Z,6.80
2023-03-21T22:03:41.727Z,5.60
2023-03-21T22:06:09.107Z,5.30
2023-03-21T22:08:35.696Z,5.45
2023-03-21T22:11:02.337Z,5.50
2023-03-21T22:13:28.621Z,5.72
2023-03-21T22:15:55.210Z,5.25
2023-03-21T22:18:21.722Z,4.90
2023-03-21T22:20:48.262Z,5.40
2023-03-21T22:23:14.608Z,5.50
2023-03-21T22:25:40.978Z,6.53
2023-03-21T22:28:07.550Z,6.00
2023-03-21T22:30:33.802Z,4.00
2023-03-21T22:33:09.360Z,7.13
2023-03-21T22:35:36.501Z,4.97
2023-03-21T22:38:02.991Z,3.65
2023-03-21T22:40:30.383Z,5.07
2023-03-21T22:42:57.753Z,8.40
2023-03-21T22:45:24.042Z,3.65
2023-03-21T22:47:50.457Z,4.38
2023-03-21T22:50:16.882Z,3.72
2023-03-21T22:52:43.175Z,3.65
2023-03-21T22:55:12.576Z,3.40
2023-03-21T22:57:38.885Z,3.03
2023-03-21T23:00:13.020Z,2.40
2023-03-21T23:02:40.045Z,2.88
2023-03-21T23:05:07.360Z,2.30
2023-03-21T23:07:33.725Z,3.00
2023-03-21T23:10:00.194Z,2.70
2023-03-21T23:12:26.576Z,2.20
2023-03-21T23:14:52.909Z,2.70
2023-03-21T23:17:19.219Z,2.20
2023-03-21T23:19:45.549Z,3.30
2023-03-21T23:22:11.840Z,2.50
2023-03-21T23:24:38.315Z,2.00
2023-03-21T23:27:05.349Z,2.33
2023-03-21T23:29:31.997Z,2.00
2023-03-21T23:31:58.282Z,2.17
2023-03-21T23:34:24.667Z,2.38
2023-03-21T23:36:50.957Z,2.45
2023-03-21T23:39:18.602Z,2.05
2023-03-21T23:41:45.189Z,1.90
2023-03-21T23:44:11.608Z,2.08
2023-03-21T23:46:37.907Z,1.55
2023-03-21T23:49:04.294Z,2.22
2023-03-21T23:51:30.610Z,1.30
2023-03-21T23:53:56.872Z,1.50
2023-03-21T23:56:24.045Z,1.70
2023-03-21T23:58:50.508Z,2.05
